Westminster, California
Current Conditions -  °F | °C
As of 4:58 AM on Sunday 23 Nov 2014 (Local Time) from KSLI Reporting Station
Clear Clear  
Wind Chill: 54°   Ceiling: Unl
Heat Index: 54°   Visibility: 10mi
Dew Point: 51°   Wind: 3mph
Humidity: 92%   Direction: 20°NNE
Pressure: 30.06"   Gusts: NA
Location:  33.76°N, 117.98°W
Report Text: KSLI 231258Z AUTO 02003KT 10SM CLR 12/11 A3006 RMK AO2 SLP182 T01210108
Loading
Personal Weather Stations






























Interactive Weather Map New forecast layout! Learn more

10-Day Weather Forecast

Advertisements
Track Severe Weather on mobile